TimeBST,TemperatureF,Dew PointF,Humidity,Sea Level PressureIn,VisibilityMPH,Wind Direction,Wind SpeedMPH,Gust SpeedMPH,PrecipitationIn,Events,Conditions,WindDirDegrees,DateUTC
12:50 AM,48,47,93,,,ESE,11.5,,,,,120,2012-10-15 23:50:00
3:50 AM,51,44,69,,,SW,21.9,,,,,230,2012-10-16 02:50:00
5:50 AM,50.0,48.2,94,29.18,5.0,SW,26.5,-,N/A,Rain,Light Rain,220,2012-10-16 04:50:00
6:20 AM,50.0,48.2,94,29.18,3.1,SW,26.5,-,N/A,Rain,Rain,220,2012-10-16 05:20:00
6:50 AM,50.0,48.2,94,29.15,3.1,SW,27.6,-,N/A,Rain,Rain,230,2012-10-16 05:50:00
7:20 AM,50.0,46.4,87,29.15,3.7,WSW,34.5,46.0,N/A,Rain,Light Rain,240,2012-10-16 06:20:00
7:50 AM,50.0,44.6,82,29.15,3.7,WSW,36.8,-,N/A,Rain,Light Rain,240,2012-10-16 06:50:00
8:20 AM,50.0,46.4,87,29.15,3.7,WSW,38.0,49.5,N/A,Rain,Light Rain,250,2012-10-16 07:20:00
8:50 AM,50.0,48.2,94,29.18,3.7,West,31.1,-,N/A,Rain,Light Rain,280,2012-10-16 07:50:00
9:20 AM,50.0,46.4,87,29.21,5.6,WNW,32.2,-,N/A,,Mostly Cloudy,290,2012-10-16 08:20:00
9:50 AM,49,43,72,,,West,35.7,,,,,270,2012-10-16 08:50:00
9:50 AM,48.2,44.6,87,29.24,5.6,West,34.5,47.2,N/A,,Mostly Cloudy,280,2012-10-16 08:50:00
10:20 AM,50.0,44.6,82,29.30,5.6,West,33.4,-,N/A,,Mostly Cloudy,280,2012-10-16 09:20:00
10:50 AM,50.0,44.6,82,29.33,5.6,WNW,31.1,-,N/A,Rain,Light Rain,290,2012-10-16 09:50:00
11:20 AM,48.2,44.6,87,29.33,5.6,West,34.5,47.2,N/A,Rain,Light Rain,280,2012-10-16 10:20:00
11:50 AM,48.2,42.8,82,29.36,5.6,West,31.1,42.6,N/A,Rain,Light Rain,280,2012-10-16 10:50:00
12:50 PM,50,40,59,,,West,27.6,,,,,280,2012-10-16 11:50:00
12:50 PM,50.0,41.0,71,29.42,5.6,West,29.9,41.4,N/A,,Mostly Cloudy,280,2012-10-16 11:50:00
1:20 PM,50.0,39.2,66,29.42,6.2,WNW,29.9,-,N/A,,Scattered Clouds,290,2012-10-16 12:20:00
1:50 PM,50.0,41.0,71,29.44,6.2,West,26.5,-,N/A,,Scattered Clouds,280,2012-10-16 12:50:00
2:20 PM,51.8,41.0,67,29.47,6.2,West,27.6,-,N/A,,Scattered Clouds,270,2012-10-16 13:20:00
2:50 PM,51.8,42.8,71,29.47,6.2,West,25.3,-,N/A,,Scattered Clouds,270,2012-10-16 13:50:00
3:20 PM,51.8,41.0,67,29.50,6.2,West,21.9,-,N/A,,Scattered Clouds,280,2012-10-16 14:20:00
3:50 PM,50,40,58,,,West,21.9,,,,,270,2012-10-16 14:50:00
3:50 PM,51.8,41.0,67,29.50,6.2,West,20.7,-,N/A,,Scattered Clouds,270,2012-10-16 14:50:00
4:50 PM,51.8,42.8,71,29.50,6.2,West,17.3,-,N/A,,Scattered Clouds,270,2012-10-16 15:50:00
5:20 PM,51.8,41.0,67,29.50,6.2,West,16.1,-,N/A,,Partly Cloudy,270,2012-10-16 16:20:00
5:50 PM,50.0,42.8,76,29.50,6.2,West,13.8,-,N/A,,Scattered Clouds,270,2012-10-16 16:50:00
6:20 PM,50.0,42.8,76,29.50,6.2,WSW,11.5,-,N/A,,Scattered Clouds,250,2012-10-16 17:20:00
6:50 PM,49,41,66,,,WSW,15.0,,,,,250,2012-10-16 17:50:00
6:50 PM,50.0,42.8,76,29.53,6.2,West,15.0,-,N/A,,Scattered Clouds,260,2012-10-16 17:50:00
7:20 PM,50.0,42.8,76,29.53,6.2,West,12.7,-,N/A,,Scattered Clouds,260,2012-10-16 18:20:00
7:50 PM,50.0,42.8,76,29.53,6.2,WSW,11.5,-,N/A,,Scattered Clouds,240,2012-10-16 18:50:00
8:20 PM,50.0,42.8,76,29.53,6.2,SW,6.9,-,N/A,,Scattered Clouds,220,2012-10-16 19:20:00
8:50 PM,48.2,42.8,82,29.53,6.2,South,9.2,-,N/A,,Scattered Clouds,180,2012-10-16 19:50:00
9:50 PM,46,42,79,,,South,9.2,,,,,170,2012-10-16 20:50:00